Huvudsida
METAR-TAF:

METAR-TAF

Flygplatser :

Perpignan, Frankrike

latitud: 42-44N, longitud: 002-52E, höjd: 43 m

Aktuellt väderrapport

Denna rapport gjordes för 39 minuter sedan, klockan 10:30 UTC
Vind 6 kt från ost, varierande mellan nord/nordost och syd
Temperatur 24°C
Fuktighet 61%
Tryck 1020 hPa
Sikt 10 km eller mer
Få moln på en höjd av 3000 ft

METAR: LFMP 161030Z AUTO 10006KT 030V180 9999 FEW030 24/16 Q1020 NOSIG

Tid: 13:09 (11:09 UTC)

Väderprognos

Denna rapport gjordes för 3 timmar och 9 minuter sedan, klockan 08:00 UTC
Prognos gäller från 16 kl. 09 UTC till 17 kl. 09 UTC
Vind 5 kt från ost
Sikt 10 km eller mer
Brutna moln på en höjd av 2500 ft
Blir
från 16 kl. 10 UTC till 16 kl. 12 UTC
Sikt 10 km eller mer
Inga moln under 1 500 m eller inga cumulonimbus
Temporärt
från 17 kl. 00 UTC till 17 kl. 02 UTC
Sikt: 3000 m
Brutna moln på en höjd av 300 ft
fuktdis

TAF: LFMP 160800Z 1609/1709 08005KT 9999 BKN025 BECMG 1610/1612 CAVOK TEMPO 1700/1702 3000 BR BKN003

Aktuella väderrapporter och prognoser från 4000 flygplatser (METAR- och TAF-rapporter).

De tillgängliga stationerna syns som gula och röda prickar på kartan.

För musen över prickarna för att se namnen på stationerna.

Klicka sedan för att få väderrapporter och prognoser.

För att ändra kartan: Klicka på de gröna knapparna med ett svart kors på för att zooma in; den gröna knappen med ett streck på för att zooma ut; eller på de gröna pilarna för angränsande kartor.


METAR-TAF: